createdAt,value
2022-12-23T00:02:21.234Z,33.38
2022-12-23T00:04:47.730Z,26.17
2022-12-23T00:07:14.148Z,37.97
2022-12-23T00:09:40.676Z,27.30
2022-12-23T00:12:26.026Z,26.77
2022-12-23T00:15:07.346Z,27.92
2022-12-23T00:17:40.880Z,39.20
2022-12-23T00:20:08.817Z,40.30
2022-12-23T00:22:54.174Z,32.33
2022-12-23T00:25:20.601Z,44.35
2022-12-23T00:28:01.315Z,44.15
2022-12-23T00:30:28.685Z,52.40
2022-12-23T00:32:55.101Z,69.78
2022-12-23T00:35:21.527Z,63.30
2022-12-23T00:37:48.034Z,60.40
2022-12-23T00:40:33.870Z,54.80
2022-12-23T00:43:01.194Z,46.28
2022-12-23T00:45:27.651Z,62.63
2022-12-23T00:48:12.739Z,48.78
2022-12-23T00:50:40.048Z,46.50
2022-12-23T00:53:06.994Z,46.38
2022-12-23T00:55:33.423Z,51.72
2022-12-23T00:57:59.846Z,60.80
2022-12-23T01:00:45.114Z,72.47
2022-12-23T01:03:31.783Z,48.90
2022-12-23T01:05:59.735Z,58.53
2022-12-23T01:08:27.211Z,47.05
2022-12-23T01:10:53.875Z,36.75
2022-12-23T01:13:20.745Z,67.00
2022-12-23T01:15:47.262Z,45.35
2022-12-23T01:18:13.778Z,41.85
2022-12-23T01:20:40.794Z,56.63
2022-12-23T01:23:07.387Z,58.85
2022-12-23T01:25:33.806Z,58.13
2022-12-23T01:28:00.321Z,58.10
2022-12-23T01:30:26.827Z,56.10
2022-12-23T01:32:53.323Z,68.43
2022-12-23T01:35:19.795Z,58.40
2022-12-23T01:37:46.227Z,56.00
2022-12-23T01:40:12.704Z,46.35
2022-12-23T01:42:45.188Z,65.75
2022-12-23T01:45:24.823Z,64.13
2022-12-23T01:48:10.100Z,45.63
2022-12-23T01:50:41.100Z,44.97
2022-12-23T01:53:13.384Z,43.58
2022-12-23T01:55:59.642Z,60.63
2022-12-23T01:58:39.284Z,47.65
2022-12-23T02:01:25.916Z,61.03
2022-12-23T02:03:56.675Z,52.65
2022-12-23T02:06:46.471Z,58.78
2022-12-23T02:09:20.733Z,46.42
2022-12-23T02:12:21.541Z,45.22
2022-12-23T02:15:09.736Z,51.63
2022-12-23T02:17:54.213Z,38.20
2022-12-23T02:20:35.801Z,56.10
2022-12-23T02:23:33.021Z,39.63
2022-12-23T02:26:27.439Z,56.25
2022-12-23T02:29:18.784Z,62.53
2022-12-23T02:32:11.890Z,48.75
2022-12-23T02:34:56.015Z,55.40
2022-12-23T02:38:00.624Z,65.35
2022-12-23T02:40:38.505Z,42.70
2022-12-23T02:43:26.102Z,42.08
2022-12-23T02:46:07.926Z,49.10
2022-12-23T02:48:34.297Z,41.30
2022-12-23T02:51:02.171Z,59.10
2022-12-23T02:53:35.619Z,45.20
2022-12-23T02:56:05.822Z,64.97
2022-12-23T02:58:37.634Z,82.72
2022-12-23T03:01:07.084Z,58.20
2022-12-23T03:03:35.503Z,62.65
2022-12-23T03:06:05.319Z,67.97
2022-12-23T03:08:42.380Z,48.70
2022-12-23T03:11:12.159Z,58.28
2022-12-23T03:13:44.300Z,66.28
2022-12-23T03:16:41.986Z,50.38
2022-12-23T03:19:23.466Z,49.50
2022-12-23T03:22:18.265Z,45.63
2022-12-23T03:24:53.939Z,45.42
2022-12-23T03:27:39.880Z,35.03
2022-12-23T03:30:11.979Z,38.10
2022-12-23T03:32:49.282Z,41.35
2022-12-23T03:35:20.013Z,39.88
2022-12-23T03:37:50.163Z,40.33
2022-12-23T03:40:23.080Z,44.28
2022-12-23T03:42:57.704Z,40.67
2022-12-23T03:48:14.909Z,40.65
2022-12-23T03:50:43.067Z,41.03
2022-12-23T03:53:38.741Z,35.97
2022-12-23T03:56:11.892Z,49.17
2022-12-23T03:58:51.626Z,48.53
2022-12-23T04:01:33.348Z,44.03
2022-12-23T04:04:38.015Z,41.17
2022-12-23T04:07:17.296Z,41.13
2022-12-23T04:09:44.747Z,43.65
2022-12-23T04:12:11.562Z,34.03
2022-12-23T04:14:44.129Z,43.78
2022-12-23T04:17:10.594Z,46.03
2022-12-23T04:19:37.016Z,41.05
2022-12-23T04:22:03.444Z,39.97
2022-12-23T04:24:29.868Z,42.85
2022-12-23T04:26:56.308Z,45.55
2022-12-23T04:29:22.676Z,38.58
2022-12-23T04:31:49.189Z,36.97
2022-12-23T04:34:15.752Z,35.85
2022-12-23T04:36:42.195Z,35.78
2022-12-23T04:39:09.410Z,45.70
2022-12-23T04:41:35.778Z,37.13
2022-12-23T04:44:02.156Z,32.50
2022-12-23T04:46:28.575Z,47.30
2022-12-23T04:48:54.999Z,30.90
2022-12-23T04:51:21.469Z,41.53
2022-12-23T04:53:47.881Z,37.95
2022-12-23T04:56:14.298Z,35.75
2022-12-23T04:58:40.806Z,33.78
2022-12-23T05:01:09.601Z,32.63
2022-12-23T05:03:37.624Z,40.10
2022-12-23T05:06:04.446Z,44.30
2022-12-23T05:08:31.000Z,28.58
2022-12-23T05:10:57.431Z,47.13
2022-12-23T05:13:24.326Z,46.60
2022-12-23T05:15:53.737Z,38.00
2022-12-23T05:18:21.360Z,36.22
2022-12-23T05:20:49.118Z,29.52
2022-12-23T05:23:15.551Z,34.13
2022-12-23T05:25:42.014Z,40.25
2022-12-23T05:28:09.523Z,38.35
2022-12-23T05:30:36.425Z,38.03
2022-12-23T05:33:02.842Z,32.67
2022-12-23T05:35:29.272Z,26.67
2022-12-23T05:37:56.902Z,38.55
2022-12-23T05:40:25.315Z,37.90
2022-12-23T05:42:55.929Z,28.02
2022-12-23T05:45:22.883Z,24.15
2022-12-23T05:47:49.311Z,32.70
2022-12-23T05:50:15.738Z,28.80
2022-12-23T05:52:42.204Z,30.20
2022-12-23T05:55:09.136Z,26.98
2022-12-23T05:57:35.578Z,26.80
2022-12-23T06:00:03.441Z,29.42
2022-12-23T06:02:30.017Z,25.25
2022-12-23T06:04:56.531Z,29.95
2022-12-23T06:07:22.900Z,23.23
2022-12-23T06:09:49.303Z,35.28
2022-12-23T06:12:15.676Z,22.05
2022-12-23T06:14:42.017Z,30.35
2022-12-23T06:17:08.413Z,30.65
2022-12-23T06:19:34.815Z,35.88
2022-12-23T06:22:01.230Z,42.30
2022-12-23T06:24:27.670Z,36.00
2022-12-23T06:26:57.195Z,39.42
2022-12-23T06:29:24.305Z,44.80
2022-12-23T06:31:50.814Z,26.10
2022-12-23T06:34:17.350Z,32.53
2022-12-23T06:36:43.771Z,33.78
2022-12-23T06:39:11.184Z,30.23
2022-12-23T06:41:37.626Z,27.48
2022-12-23T06:44:04.272Z,31.80
2022-12-23T06:46:30.804Z,26.92
2022-12-23T06:48:57.306Z,26.92
2022-12-23T06:51:23.763Z,29.35
2022-12-23T06:53:50.193Z,24.02
2022-12-23T06:56:16.593Z,37.42
2022-12-23T06:58:42.938Z,27.95
2022-12-23T07:01:10.365Z,37.15
2022-12-23T07:03:36.923Z,31.88
2022-12-23T07:06:03.799Z,31.20
2022-12-23T07:08:30.227Z,34.60
2022-12-23T07:11:00.593Z,32.55
2022-12-23T07:13:27.657Z,31.48
2022-12-23T07:15:54.130Z,27.80
2022-12-23T07:18:22.890Z,38.47
2022-12-23T07:20:50.085Z,33.70
2022-12-23T07:23:16.808Z,32.15
2022-12-23T07:25:43.281Z,36.97
2022-12-23T07:28:09.747Z,37.17
2022-12-23T07:30:36.691Z,27.58
2022-12-23T07:33:03.098Z,34.05
2022-12-23T07:35:29.568Z,28.10
2022-12-23T07:37:56.518Z,34.15
2022-12-23T07:40:24.301Z,32.65
2022-12-23T07:42:54.839Z,37.50
2022-12-23T07:45:21.428Z,37.60
2022-12-23T07:47:47.926Z,38.70
2022-12-23T07:50:14.539Z,34.20
2022-12-23T07:52:41.009Z,34.38
2022-12-23T07:55:07.743Z,36.85
2022-12-23T07:57:37.912Z,56.15
2022-12-23T08:00:10.523Z,61.08
2022-12-23T08:02:37.295Z,42.35
2022-12-23T08:05:04.123Z,27.58
2022-12-23T08:07:30.596Z,35.40
2022-12-23T08:09:57.040Z,36.05
2022-12-23T08:12:23.598Z,26.83
2022-12-23T08:14:52.466Z,34.13
2022-12-23T08:17:21.350Z,35.30
2022-12-23T08:19:48.732Z,32.22
2022-12-23T08:22:15.609Z,28.58
2022-12-23T08:24:42.034Z,43.50
2022-12-23T08:27:08.434Z,44.10
2022-12-23T08:29:36.604Z,32.83
2022-12-23T08:32:03.262Z,30.73
2022-12-23T08:34:29.729Z,37.72
2022-12-23T08:36:56.089Z,30.15
2022-12-23T08:39:22.864Z,34.45
2022-12-23T08:41:49.448Z,39.83
2022-12-23T08:44:16.882Z,27.73
2022-12-23T08:46:44.570Z,30.35
2022-12-23T08:49:11.523Z,39.15
2022-12-23T08:51:38.846Z,45.60
2022-12-23T08:54:06.153Z,45.13
2022-12-23T08:56:35.723Z,41.38
2022-12-23T08:59:02.762Z,32.88
2022-12-23T09:01:33.231Z,39.80
2022-12-23T09:04:03.610Z,34.67
2022-12-23T09:06:34.299Z,40.38
2022-12-23T09:09:00.661Z,44.70
2022-12-23T09:11:28.717Z,29.00
2022-12-23T09:13:55.983Z,37.45
2022-12-23T09:16:23.129Z,35.55
2022-12-23T09:18:49.638Z,26.80
2022-12-23T09:21:19.824Z,53.92
2022-12-23T09:23:46.994Z,35.33
2022-12-23T09:26:22.939Z,36.30
2022-12-23T09:28:49.620Z,41.80
2022-12-23T09:31:16.419Z,32.30
2022-12-23T09:33:43.009Z,48.97
2022-12-23T09:36:09.564Z,43.90
2022-12-23T09:38:36.263Z,32.63
2022-12-23T09:41:26.080Z,31.88
2022-12-23T09:44:10.546Z,38.72
2022-12-23T09:46:43.940Z,34.90
2022-12-23T09:49:13.384Z,28.58
2022-12-23T09:51:39.884Z,21.75
2022-12-23T09:54:18.947Z,31.33
2022-12-23T09:56:52.212Z,25.25
2022-12-23T09:59:33.778Z,22.48
2022-12-23T10:02:11.585Z,20.83
2022-12-23T10:04:52.667Z,19.23
2022-12-23T10:07:27.165Z,18.67
2022-12-23T10:09:56.274Z,19.02
2022-12-23T10:12:39.474Z,20.48
2022-12-23T10:15:19.144Z,22.02
2022-12-23T10:17:46.512Z,18.67
2022-12-23T10:20:19.473Z,20.48
2022-12-23T10:22:47.233Z,18.67
2022-12-23T10:25:35.196Z,22.95
2022-12-23T10:28:01.646Z,23.08
2022-12-23T10:30:57.420Z,19.27
2022-12-23T10:33:30.473Z,20.17
2022-12-23T10:36:34.640Z,21.15
2022-12-23T10:39:24.761Z,29.10
2022-12-23T10:42:24.915Z,20.23
2022-12-23T10:45:19.355Z,21.80
2022-12-23T10:48:18.142Z,36.97
2022-12-23T10:50:55.580Z,26.90
2022-12-23T10:53:34.615Z,24.65
2022-12-23T10:56:04.291Z,25.40
2022-12-23T10:58:31.161Z,32.13
2022-12-23T11:00:59.842Z,17.85
2022-12-23T11:03:31.232Z,22.25
2022-12-23T11:05:58.779Z,26.13
2022-12-23T11:08:27.420Z,36.78
2022-12-23T11:10:55.664Z,16.73
2022-12-23T11:13:40.475Z,32.80
2022-12-23T11:16:28.027Z,28.88
2022-12-23T11:18:59.910Z,23.98
2022-12-23T11:21:28.008Z,30.35
2022-12-23T11:24:08.095Z,20.27
2022-12-23T11:26:35.568Z,28.13
2022-12-23T11:29:09.853Z,45.25
2022-12-23T11:31:36.931Z,27.75
2022-12-23T11:34:13.853Z,24.23
2022-12-23T11:36:41.171Z,43.28
2022-12-23T11:39:10.642Z,26.35
2022-12-23T11:41:40.198Z,26.90
2022-12-23T11:44:18.053Z,22.55
2022-12-23T11:46:44.589Z,16.98
2022-12-23T11:49:20.127Z,36.38
2022-12-23T11:51:59.955Z,21.45
2022-12-23T11:54:26.573Z,25.77
2022-12-23T11:56:54.777Z,24.83
2022-12-23T11:59:33.846Z,26.85
2022-12-23T12:02:03.487Z,24.10
2022-12-23T12:04:34.161Z,33.60
2022-12-23T12:07:03.096Z,36.42
2022-12-23T12:09:31.754Z,27.35
2022-12-23T12:12:13.944Z,31.63
2022-12-23T12:14:45.270Z,27.10
2022-12-23T12:17:22.322Z,36.25
2022-12-23T12:20:31.221Z,37.85
2022-12-23T12:23:02.311Z,27.17
2022-12-23T12:25:51.976Z,27.60
2022-12-23T12:28:38.943Z,30.08
2022-12-23T12:31:23.425Z,20.65
2022-12-23T12:34:11.118Z,13.73
2022-12-23T12:36:58.587Z,18.05
2022-12-23T12:39:34.067Z,25.60
2022-12-23T12:42:11.540Z,15.75
2022-12-23T12:44:47.878Z,21.58
2022-12-23T12:50:17.898Z,18.02
2022-12-23T12:52:44.498Z,15.80
2022-12-23T12:55:26.050Z,11.35
2022-12-23T12:57:52.477Z,15.55
2022-12-23T13:00:22.679Z,13.63
2022-12-23T13:02:59.368Z,14.43
2022-12-23T13:05:48.450Z,10.43
2022-12-23T13:08:36.021Z,10.13
2022-12-23T13:11:45.128Z,12.77
2022-12-23T13:14:42.427Z,10.15
2022-12-23T13:17:25.710Z,7.63
2022-12-23T13:20:12.550Z,9.48
2022-12-23T13:22:39.856Z,8.07
2022-12-23T13:25:22.794Z,8.10
2022-12-23T13:27:57.106Z,9.70
2022-12-23T13:30:26.953Z,9.73
2022-12-23T13:32:56.020Z,10.40
2022-12-23T13:35:25.468Z,8.68
2022-12-23T13:38:40.085Z,8.57
2022-12-23T13:41:21.343Z,7.38
2022-12-23T13:43:53.591Z,5.20
2022-12-23T13:46:54.459Z,5.13
2022-12-23T13:49:51.881Z,7.82
2022-12-23T13:52:31.547Z,7.53
2022-12-23T13:55:35.246Z,6.60
2022-12-23T13:58:13.392Z,7.05
2022-12-23T14:00:39.857Z,6.85
2022-12-23T14:03:19.250Z,8.45
2022-12-23T14:05:50.781Z,9.90
2022-12-23T14:08:20.078Z,8.30
2022-12-23T14:10:51.764Z,6.97
2022-12-23T14:13:19.179Z,9.13
2022-12-23T14:15:53.228Z,6.93
2022-12-23T14:18:59.772Z,6.38
2022-12-23T14:22:00.098Z,6.53
2022-12-23T14:24:51.902Z,5.20
2022-12-23T14:27:39.307Z,5.70
2022-12-23T14:30:10.435Z,7.28
2022-12-23T14:32:50.472Z,6.55
2022-12-23T14:35:19.370Z,7.38
2022-12-23T14:38:14.582Z,7.18
2022-12-23T14:40:50.548Z,7.15
2022-12-23T14:43:23.223Z,5.95
2022-12-23T14:45:54.537Z,6.70
2022-12-23T14:48:36.057Z,12.60
2022-12-23T14:51:22.941Z,7.53
2022-12-23T14:53:52.465Z,9.77
2022-12-23T14:56:18.843Z,9.20
2022-12-23T14:58:51.657Z,10.52
2022-12-23T15:01:33.103Z,10.05
2022-12-23T15:04:25.536Z,15.55
2022-12-23T15:07:01.768Z,6.35
2022-12-23T15:09:31.307Z,11.68
2022-12-23T15:12:01.277Z,9.95
2022-12-23T15:14:32.503Z,10.48
2022-12-23T15:16:58.971Z,8.98
2022-12-23T15:19:27.656Z,10.07
2022-12-23T15:22:20.607Z,6.80
2022-12-23T15:24:50.438Z,7.38
2022-12-23T15:27:27.193Z,6.20
2022-12-23T15:29:55.156Z,5.95
2022-12-23T15:32:23.960Z,4.85
2022-12-23T15:34:52.178Z,5.20
2022-12-23T15:37:24.837Z,12.18
2022-12-23T15:39:57.208Z,9.63
2022-12-23T15:42:38.317Z,8.10
2022-12-23T15:45:23.099Z,11.23
2022-12-23T15:47:50.466Z,8.65
2022-12-23T15:50:18.302Z,6.03
2022-12-23T15:52:47.305Z,6.68
2022-12-23T15:55:27.770Z,6.82
2022-12-23T15:57:54.565Z,6.82
2022-12-23T16:00:25.040Z,8.68
2022-12-23T16:03:02.709Z,9.90
2022-12-23T16:05:32.688Z,10.07
2022-12-23T16:08:28.564Z,13.52
2022-12-23T16:10:55.871Z,14.80
2022-12-23T16:13:22.327Z,11.77
2022-12-23T16:15:48.832Z,14.52
2022-12-23T16:18:28.432Z,9.18
2022-12-23T16:20:58.571Z,7.97
2022-12-23T16:23:30.126Z,7.30
2022-12-23T16:25:58.932Z,6.88
2022-12-23T16:28:41.063Z,6.75
2022-12-23T16:31:10.057Z,6.55
2022-12-23T16:33:48.985Z,8.55
2022-12-23T16:36:27.729Z,13.43
2022-12-23T16:38:59.610Z,10.65
2022-12-23T16:41:26.301Z,8.38
2022-12-23T16:43:53.209Z,9.13
2022-12-23T16:46:22.105Z,10.55
2022-12-23T16:48:51.750Z,9.05
2022-12-23T16:51:20.790Z,9.18
2022-12-23T16:53:51.713Z,11.25
2022-12-23T16:56:20.668Z,9.63
2022-12-23T16:58:47.399Z,8.68
2022-12-23T17:01:22.080Z,10.35
2022-12-23T17:03:48.709Z,8.60
2022-12-23T17:06:16.787Z,12.63
2022-12-23T17:08:43.596Z,6.45
2022-12-23T17:11:19.658Z,8.20
2022-12-23T17:13:46.695Z,6.80
2022-12-23T17:16:21.476Z,8.38
2022-12-23T17:18:49.323Z,6.80
2022-12-23T17:21:25.694Z,8.60
2022-12-23T17:24:07.387Z,5.75
2022-12-23T17:26:33.894Z,5.22
2022-12-23T17:29:03.453Z,8.23
2022-12-23T17:31:30.184Z,5.45
2022-12-23T17:33:56.617Z,8.10
2022-12-23T17:36:23.139Z,6.72
2022-12-23T17:38:49.595Z,7.50
2022-12-23T17:41:28.611Z,6.25
2022-12-23T17:43:55.417Z,4.68
2022-12-23T17:46:21.967Z,6.63
2022-12-23T17:48:48.724Z,4.60
2022-12-23T17:51:20.579Z,7.90
2022-12-23T17:53:51.567Z,7.25
2022-12-23T17:58:50.184Z,11.43
2022-12-23T18:01:31.407Z,9.05
2022-12-23T18:03:59.367Z,11.23
2022-12-23T18:06:27.708Z,17.95
2022-12-23T18:08:54.404Z,10.40
2022-12-23T18:11:31.056Z,11.50
2022-12-23T18:13:57.552Z,9.98
2022-12-23T18:16:24.004Z,13.00
2022-12-23T18:18:50.474Z,11.77
2022-12-23T18:21:26.333Z,12.35
2022-12-23T18:23:54.863Z,12.88
2022-12-23T18:26:21.223Z,13.82
2022-12-23T18:28:47.602Z,11.70
2022-12-23T18:31:17.225Z,12.32
2022-12-23T18:33:44.869Z,12.50
2022-12-23T18:36:24.262Z,12.40
2022-12-23T18:38:52.181Z,12.50
2022-12-23T18:41:19.758Z,13.70
2022-12-23T18:43:46.603Z,12.68
2022-12-23T18:46:13.346Z,22.25
2022-12-23T18:48:39.842Z,14.00
2022-12-23T18:51:06.596Z,9.95
2022-12-23T18:53:33.020Z,13.88
2022-12-23T18:55:59.513Z,13.95
2022-12-23T18:58:25.976Z,10.18
2022-12-23T19:00:53.129Z,13.57
2022-12-23T19:03:25.546Z,10.00
2022-12-23T19:05:53.381Z,14.60
2022-12-23T19:08:26.156Z,9.50
2022-12-23T19:10:54.432Z,13.27
2022-12-23T19:13:21.383Z,15.32
2022-12-23T19:15:47.876Z,12.48
2022-12-23T19:18:16.947Z,15.88
2022-12-23T19:20:44.975Z,14.98
2022-12-23T19:23:11.920Z,15.52
2022-12-23T19:25:46.073Z,16.20
2022-12-23T19:28:18.809Z,14.15
2022-12-23T19:30:45.338Z,13.88
2022-12-23T19:33:13.252Z,10.27
2022-12-23T19:35:43.115Z,10.50
2022-12-23T19:38:09.616Z,10.02
2022-12-23T19:40:36.319Z,10.57
2022-12-23T19:43:03.482Z,9.07
2022-12-23T19:45:29.860Z,20.58
2022-12-23T19:47:56.293Z,15.13
2022-12-23T19:50:22.698Z,13.65
2022-12-23T19:52:50.642Z,18.88
2022-12-23T19:55:17.148Z,22.42
2022-12-23T19:57:43.643Z,14.93
2022-12-23T20:00:10.660Z,13.65
2022-12-23T20:02:37.137Z,13.70
2022-12-23T20:05:04.116Z,10.90
2022-12-23T20:07:30.644Z,12.02
2022-12-23T20:09:57.082Z,22.90
2022-12-23T20:12:25.299Z,11.13
2022-12-23T20:14:51.742Z,14.98
2022-12-23T20:17:18.187Z,14.38
2022-12-23T20:19:46.449Z,15.75
2022-12-23T20:22:13.216Z,13.40
2022-12-23T20:24:39.645Z,14.43
2022-12-23T20:27:11.026Z,9.90
2022-12-23T20:29:38.492Z,11.63
2022-12-23T20:32:05.223Z,7.38
2022-12-23T20:34:36.721Z,11.20
2022-12-23T20:37:06.451Z,11.93
2022-12-23T20:39:33.016Z,11.45
2022-12-23T20:41:59.474Z,10.50
2022-12-23T20:44:35.108Z,13.70
2022-12-23T20:47:03.673Z,15.68
2022-12-23T20:49:30.697Z,16.23
2022-12-23T20:51:57.173Z,20.75
2022-12-23T20:54:29.704Z,16.05
2022-12-23T20:56:58.820Z,14.30
2022-12-23T20:59:25.323Z,13.00
2022-12-23T21:01:52.025Z,14.02
2022-12-23T21:04:18.819Z,13.88
2022-12-23T21:06:45.411Z,15.00
2022-12-23T21:09:14.537Z,12.82
2022-12-23T21:11:43.276Z,11.75
2022-12-23T21:14:10.728Z,12.27
2022-12-23T21:16:38.421Z,12.20
2022-12-23T21:19:06.594Z,12.95
2022-12-23T21:21:33.092Z,108.15
2022-12-23T21:24:02.183Z,34.42
2022-12-23T21:26:30.756Z,16.55
2022-12-23T21:28:59.786Z,17.50
2022-12-23T21:31:29.107Z,14.00
2022-12-23T21:33:56.264Z,13.82
2022-12-23T21:36:26.059Z,13.88
2022-12-23T21:38:52.671Z,20.70
2022-12-23T21:41:41.107Z,19.73
2022-12-23T21:44:08.593Z,19.52
2022-12-23T21:46:35.332Z,15.68
2022-12-23T21:49:02.465Z,18.60
2022-12-23T21:51:39.044Z,14.93
2022-12-23T21:54:06.848Z,15.48
2022-12-23T21:56:33.340Z,15.10
2022-12-23T21:59:02.057Z,18.95
2022-12-23T22:01:29.171Z,13.52
2022-12-23T22:03:57.047Z,14.15
2022-12-23T22:06:31.892Z,17.23
2022-12-23T22:08:59.148Z,20.40
2022-12-23T22:11:30.510Z,20.45
2022-12-23T22:13:58.907Z,17.83
2022-12-23T22:16:28.361Z,18.23
2022-12-23T22:18:55.930Z,20.70
2022-12-23T22:21:24.621Z,19.35
2022-12-23T22:23:52.567Z,15.02
2022-12-23T22:26:25.133Z,17.10
2022-12-23T22:28:55.958Z,17.75
2022-12-23T22:31:39.645Z,16.25
2022-12-23T22:34:07.628Z,12.53
2022-12-23T22:36:34.367Z,21.38
2022-12-23T22:39:01.551Z,24.45
2022-12-23T22:41:29.262Z,24.98
2022-12-23T22:43:57.027Z,20.10
2022-12-23T22:46:24.481Z,18.60
2022-12-23T22:48:51.768Z,17.80
2022-12-23T22:51:21.423Z,10.80
2022-12-23T22:53:48.027Z,7.05
2022-12-23T22:56:16.673Z,9.65
2022-12-23T22:58:43.780Z,9.80
2022-12-23T23:01:31.207Z,13.20
2022-12-23T23:03:59.827Z,7.00
2022-12-23T23:06:29.131Z,16.38
2022-12-23T23:08:56.318Z,7.05
2022-12-23T23:11:23.987Z,8.38
2022-12-23T23:13:50.929Z,9.52
2022-12-23T23:16:17.859Z,17.40
2022-12-23T23:18:44.311Z,14.38
2022-12-23T23:21:12.862Z,17.00
2022-12-23T23:23:39.370Z,19.10
2022-12-23T23:26:06.213Z,17.15
2022-12-23T23:28:32.659Z,17.35
2022-12-23T23:31:31.923Z,18.52
2022-12-23T23:33:45.585Z,15.82
2022-12-23T23:36:12.083Z,20.42
2022-12-23T23:38:38.527Z,22.30
2022-12-23T23:41:05.195Z,16.35
2022-12-23T23:43:31.607Z,22.17
2022-12-23T23:45:58.849Z,12.88
2022-12-23T23:48:25.342Z,17.15
2022-12-23T23:50:51.778Z,13.98
2022-12-23T23:53:18.183Z,24.33
2022-12-23T23:55:44.613Z,23.52
2022-12-23T23:58:11.854Z,21.67
